createdAt,value
2018-02-17T00:01:59.305Z,82.90
2018-02-17T00:04:26.817Z,83.58
2018-02-17T00:06:54.377Z,83.43
2018-02-17T00:09:21.894Z,83.05
2018-02-17T00:11:49.442Z,83.86
2018-02-17T00:14:16.960Z,83.54
2018-02-17T00:16:44.520Z,83.33
2018-02-17T00:19:12.069Z,83.91
2018-02-17T00:21:39.584Z,83.38
2018-02-17T00:24:07.116Z,83.56
2018-02-17T00:26:34.637Z,83.84
2018-02-17T00:29:02.213Z,84.28
2018-02-17T00:31:29.737Z,83.69
2018-02-17T00:33:57.261Z,83.76
2018-02-17T00:36:24.789Z,83.91
2018-02-17T00:38:52.341Z,83.89
2018-02-17T00:41:19.941Z,84.18
2018-02-17T00:43:47.517Z,84.42
2018-02-17T00:46:15.041Z,84.36
2018-02-17T00:48:42.616Z,84.80
2018-02-17T00:51:10.141Z,84.31
2018-02-17T00:53:37.677Z,84.13
2018-02-17T00:56:05.314Z,84.06
2018-02-17T00:58:32.844Z,84.34
2018-02-17T01:01:00.442Z,84.64
2018-02-17T01:03:27.961Z,84.58
2018-02-17T01:05:55.484Z,84.21
2018-02-17T01:08:23.012Z,84.38
2018-02-17T01:10:50.549Z,84.66
2018-02-17T01:13:18.141Z,84.58
2018-02-17T01:15:45.674Z,85.16
2018-02-17T01:18:13.256Z,85.13
2018-02-17T01:20:40.786Z,85.09
2018-02-17T01:23:08.397Z,84.83
2018-02-17T01:25:35.966Z,85.32
2018-02-17T01:28:03.485Z,84.60
2018-02-17T01:30:30.996Z,84.69
2018-02-17T01:32:58.623Z,84.68
2018-02-17T01:35:26.146Z,84.53
2018-02-17T01:37:53.741Z,84.56
2018-02-17T01:40:21.275Z,84.87
2018-02-17T01:42:48.878Z,85.18
2018-02-17T01:45:16.394Z,85.00
2018-02-17T01:47:44.000Z,84.71
2018-02-17T01:50:23.449Z,84.43
2018-02-17T01:52:50.969Z,84.58
2018-02-17T01:55:18.480Z,84.34
2018-02-17T01:57:45.988Z,84.84
2018-02-17T02:00:13.533Z,84.15
2018-02-17T02:02:41.121Z,84.29
2018-02-17T02:05:08.694Z,84.18
2018-02-17T02:07:36.230Z,84.58
2018-02-17T02:10:03.807Z,83.95
2018-02-17T02:12:31.333Z,84.57
2018-02-17T02:14:58.864Z,84.48
2018-02-17T02:17:26.395Z,84.30
2018-02-17T02:19:53.958Z,84.24
2018-02-17T02:22:21.519Z,84.17
2018-02-17T02:24:49.069Z,83.88
2018-02-17T02:27:16.592Z,84.10
2018-02-17T02:29:44.113Z,83.90
2018-02-17T02:32:11.637Z,84.02
2018-02-17T02:34:39.157Z,83.96
2018-02-17T02:37:06.682Z,83.62
2018-02-17T02:39:34.245Z,83.63
2018-02-17T02:42:01.776Z,83.62
2018-02-17T02:44:29.312Z,83.40
2018-02-17T02:46:56.922Z,83.81
2018-02-17T02:49:24.445Z,83.65
2018-02-17T02:51:52.014Z,83.80
2018-02-17T02:54:19.547Z,83.66
2018-02-17T02:56:47.093Z,83.60
2018-02-17T02:59:14.621Z,84.20
2018-02-17T03:01:42.182Z,84.15
2018-02-17T03:04:09.737Z,84.21
2018-02-17T03:06:37.262Z,83.99
2018-02-17T03:09:04.776Z,84.37
2018-02-17T03:11:32.290Z,84.51
2018-02-17T03:13:59.876Z,84.43
2018-02-17T03:16:27.392Z,84.61
2018-02-17T03:18:54.995Z,84.16
2018-02-17T03:21:22.540Z,84.16
2018-02-17T03:23:50.058Z,84.25
2018-02-17T03:26:17.600Z,84.21
2018-02-17T03:28:45.134Z,84.00
2018-02-17T03:31:12.689Z,84.06
2018-02-17T03:33:40.208Z,83.97
2018-02-17T03:36:07.740Z,83.68
2018-02-17T03:38:35.272Z,83.86
2018-02-17T03:41:02.832Z,83.55
2018-02-17T03:43:30.499Z,83.60
2018-02-17T03:45:58.013Z,83.76
2018-02-17T03:48:25.717Z,83.51
2018-02-17T03:50:53.248Z,83.59
2018-02-17T03:53:20.761Z,83.30
2018-02-17T03:55:48.292Z,83.18
2018-02-17T03:58:15.806Z,83.19
2018-02-17T04:00:43.413Z,83.24
2018-02-17T04:03:10.944Z,83.11
2018-02-17T04:05:38.461Z,83.28
2018-02-17T04:08:05.987Z,83.01
2018-02-17T04:10:33.549Z,83.18
2018-02-17T04:13:01.060Z,83.02
2018-02-17T04:15:28.578Z,83.15
2018-02-17T04:17:56.126Z,83.23
2018-02-17T04:20:23.641Z,83.11
2018-02-17T04:22:51.232Z,82.79
2018-02-17T04:25:18.753Z,82.95
2018-02-17T04:27:46.347Z,82.78
2018-02-17T04:30:13.860Z,82.74
2018-02-17T04:32:41.473Z,82.50
2018-02-17T04:35:09.044Z,82.54
2018-02-17T04:37:36.556Z,82.71
2018-02-17T04:40:06.433Z,82.72
2018-02-17T04:42:34.397Z,82.49
2018-02-17T04:48:04.215Z,82.31
2018-02-17T04:50:37.269Z,82.59
2018-02-17T04:56:07.850Z,82.71
2018-02-17T04:58:41.870Z,82.70
2018-02-17T05:01:19.288Z,82.55
2018-02-17T05:03:49.274Z,82.66
2018-02-17T05:06:23.271Z,82.48
2018-02-17T05:08:52.741Z,82.40
2018-02-17T05:11:20.294Z,82.87
2018-02-17T05:13:47.809Z,82.73
2018-02-17T05:16:26.138Z,82.67
2018-02-17T05:18:54.641Z,82.48
2018-02-17T05:21:22.966Z,82.40
2018-02-17T05:23:52.264Z,82.36
2018-02-17T05:26:19.801Z,82.60
2018-02-17T05:28:47.329Z,82.72
2018-02-17T05:31:16.759Z,82.37
2018-02-17T05:33:44.663Z,82.54
2018-02-17T05:36:26.032Z,82.68
2018-02-17T05:39:05.273Z,83.15
2018-02-17T05:41:33.240Z,82.60
2018-02-17T05:44:00.772Z,82.52
2018-02-17T05:46:31.684Z,82.83
2018-02-17T05:49:00.121Z,82.40
2018-02-17T05:51:27.633Z,82.12
2018-02-17T05:53:55.148Z,82.14
2018-02-17T05:56:22.705Z,82.37
2018-02-17T05:58:50.260Z,82.46
2018-02-17T06:01:17.782Z,82.45
2018-02-17T06:03:45.300Z,82.39
2018-02-17T06:06:12.821Z,82.35
2018-02-17T06:08:40.359Z,82.24
2018-02-17T06:11:07.898Z,82.39
2018-02-17T06:13:35.411Z,82.22
2018-02-17T06:16:02.968Z,82.12
2018-02-17T06:18:30.508Z,82.05
2018-02-17T06:20:58.034Z,82.41
2018-02-17T06:23:25.562Z,82.53
2018-02-17T06:25:53.093Z,82.45
2018-02-17T06:28:20.655Z,82.31
2018-02-17T06:30:48.167Z,82.68
2018-02-17T06:33:15.789Z,82.73
2018-02-17T06:35:43.346Z,83.01
2018-02-17T06:38:10.923Z,82.67
2018-02-17T06:40:38.440Z,82.32
2018-02-17T06:43:05.957Z,82.06
2018-02-17T06:45:33.473Z,82.01
2018-02-17T06:48:01.055Z,81.94
2018-02-17T06:50:28.828Z,81.89
2018-02-17T06:52:56.353Z,81.92
2018-02-17T06:55:23.930Z,81.71
2018-02-17T06:57:51.436Z,81.56
2018-02-17T07:00:19.059Z,81.54
2018-02-17T07:02:46.589Z,81.67
2018-02-17T07:05:14.166Z,81.86
2018-02-17T07:07:41.712Z,81.66
2018-02-17T07:10:09.297Z,81.46
2018-02-17T07:12:36.828Z,81.43
2018-02-17T07:15:04.404Z,81.71
2018-02-17T07:17:31.952Z,81.62
2018-02-17T07:19:59.524Z,81.25
2018-02-17T07:22:27.099Z,81.26
2018-02-17T07:24:54.627Z,81.32
2018-02-17T07:27:22.266Z,81.09
2018-02-17T07:29:49.777Z,81.17
2018-02-17T07:32:17.311Z,80.96
2018-02-17T07:34:44.852Z,80.75
2018-02-17T07:37:12.425Z,80.75
2018-02-17T07:39:39.940Z,80.65
2018-02-17T07:42:07.599Z,80.62
2018-02-17T07:44:35.155Z,80.85
2018-02-17T07:47:02.697Z,80.43
2018-02-17T07:49:30.226Z,80.32
2018-02-17T07:51:57.798Z,80.24
2018-02-17T07:54:25.321Z,80.04
2018-02-17T07:56:52.853Z,80.63
2018-02-17T07:59:20.390Z,80.83
2018-02-17T08:01:47.933Z,80.75
2018-02-17T08:04:15.521Z,80.22
2018-02-17T08:06:43.042Z,80.28
2018-02-17T08:09:10.578Z,80.13
2018-02-17T08:11:38.180Z,79.71
2018-02-17T08:14:05.749Z,79.98
2018-02-17T08:16:33.319Z,79.98
2018-02-17T08:19:00.837Z,79.93
2018-02-17T08:21:28.377Z,79.90
2018-02-17T08:23:55.897Z,79.35
2018-02-17T08:26:23.426Z,79.27
2018-02-17T08:28:50.942Z,79.40
2018-02-17T08:31:18.488Z,79.24
2018-02-17T08:33:46.002Z,79.31
2018-02-17T08:36:13.529Z,79.07
2018-02-17T08:38:41.049Z,78.76
2018-02-17T08:41:08.565Z,78.97
2018-02-17T08:43:36.171Z,78.70
2018-02-17T08:46:03.732Z,78.57
2018-02-17T08:48:31.299Z,78.19
2018-02-17T08:50:58.849Z,77.83
2018-02-17T08:53:26.364Z,78.28
2018-02-17T08:55:53.877Z,77.71
2018-02-17T08:58:21.417Z,77.58
2018-02-17T09:00:48.948Z,77.52
2018-02-17T09:03:16.483Z,77.57
2018-02-17T09:05:44.009Z,77.29
2018-02-17T09:08:11.538Z,77.33
2018-02-17T09:10:48.889Z,77.10
2018-02-17T09:13:16.521Z,76.76
2018-02-17T09:15:44.050Z,76.81
2018-02-17T09:18:11.589Z,75.91
2018-02-17T09:20:39.496Z,76.19
2018-02-17T09:23:07.053Z,76.52
2018-02-17T09:25:34.616Z,75.96
2018-02-17T09:28:02.129Z,75.46
2018-02-17T09:30:29.728Z,75.32
2018-02-17T09:32:57.244Z,76.10
2018-02-17T09:35:24.853Z,75.45
2018-02-17T09:37:52.410Z,75.04
2018-02-17T09:40:19.935Z,75.38
2018-02-17T09:42:47.445Z,75.27
2018-02-17T09:45:14.960Z,75.62
2018-02-17T09:47:42.490Z,75.13
2018-02-17T09:50:10.009Z,74.98
2018-02-17T09:52:37.609Z,75.12
2018-02-17T09:55:05.256Z,74.71
2018-02-17T09:57:32.909Z,74.68
2018-02-17T10:00:00.423Z,74.82
2018-02-17T10:02:28.029Z,74.82
2018-02-17T10:04:55.594Z,74.80
2018-02-17T10:07:23.114Z,74.39
2018-02-17T10:09:50.649Z,74.28
2018-02-17T10:12:18.204Z,74.72
2018-02-17T10:14:45.722Z,73.78
2018-02-17T10:17:13.290Z,73.84
2018-02-17T10:19:41.279Z,73.86
2018-02-17T10:22:08.825Z,72.87
2018-02-17T10:24:36.383Z,72.84
2018-02-17T10:27:03.895Z,73.68
2018-02-17T10:29:31.418Z,73.10
2018-02-17T10:31:58.976Z,72.97
2018-02-17T10:34:26.613Z,72.53
2018-02-17T10:36:54.142Z,73.22
2018-02-17T10:39:21.673Z,72.96
2018-02-17T10:41:49.197Z,72.82
2018-02-17T10:44:16.728Z,72.17
2018-02-17T10:46:44.253Z,72.42
2018-02-17T10:49:11.870Z,71.89
2018-02-17T10:51:39.391Z,71.53
2018-02-17T10:54:06.935Z,71.36
2018-02-17T10:56:34.545Z,71.93
2018-02-17T10:59:02.117Z,70.79
2018-02-17T11:01:29.633Z,71.30
2018-02-17T11:03:57.232Z,71.18
2018-02-17T11:06:24.748Z,70.33
2018-02-17T11:08:52.307Z,70.29
2018-02-17T11:11:19.834Z,70.32
2018-02-17T11:13:47.352Z,69.89
2018-02-17T11:16:14.869Z,69.81
2018-02-17T11:18:42.379Z,69.78
2018-02-17T11:21:09.931Z,69.39
2018-02-17T11:23:37.496Z,69.50
2018-02-17T11:26:05.037Z,69.37
2018-02-17T11:28:32.568Z,69.34
2018-02-17T11:31:00.085Z,69.16
2018-02-17T11:33:27.616Z,68.64
2018-02-17T11:35:55.213Z,68.91
2018-02-17T11:38:22.752Z,68.94
2018-02-17T11:40:50.346Z,68.84
2018-02-17T11:43:17.853Z,68.53
2018-02-17T11:45:45.398Z,68.43
2018-02-17T11:48:12.991Z,68.65
2018-02-17T11:50:40.552Z,67.60
2018-02-17T11:53:08.102Z,68.60
2018-02-17T11:55:35.641Z,67.81
2018-02-17T11:58:03.215Z,67.93
2018-02-17T12:00:30.729Z,68.17
2018-02-17T12:02:58.249Z,68.39
2018-02-17T12:05:25.825Z,67.45
2018-02-17T12:07:53.345Z,68.18
2018-02-17T12:10:20.880Z,66.66
2018-02-17T12:12:48.494Z,67.81
2018-02-17T12:15:16.024Z,67.70
2018-02-17T12:17:43.554Z,66.49
2018-02-17T12:20:11.070Z,67.00
2018-02-17T12:22:38.601Z,66.51
2018-02-17T12:25:06.195Z,66.29
2018-02-17T12:27:33.720Z,65.59
2018-02-17T12:30:01.253Z,65.28
2018-02-17T12:32:28.868Z,64.59
2018-02-17T12:34:56.377Z,65.61
2018-02-17T12:37:24.000Z,65.06
2018-02-17T12:39:51.535Z,63.54
2018-02-17T12:42:19.104Z,64.06
2018-02-17T12:44:46.671Z,63.78
2018-02-17T12:47:14.233Z,63.72
2018-02-17T12:49:41.759Z,63.56
2018-02-17T12:52:09.290Z,63.64
2018-02-17T12:54:36.845Z,63.70
2018-02-17T12:57:04.407Z,64.29
2018-02-17T12:59:32.041Z,64.13
2018-02-17T13:01:59.564Z,64.55
2018-02-17T13:04:27.122Z,64.81
2018-02-17T13:06:55.262Z,65.39
2018-02-17T13:09:22.889Z,65.44
2018-02-17T13:11:50.401Z,65.82
2018-02-17T13:14:17.908Z,65.77
2018-02-17T13:16:45.556Z,65.91
2018-02-17T13:19:13.096Z,66.10
2018-02-17T13:21:40.650Z,65.91
2018-02-17T13:24:08.181Z,65.44
2018-02-17T13:26:35.856Z,65.66
2018-02-17T13:29:03.353Z,65.53
2018-02-17T13:31:30.898Z,65.65
2018-02-17T13:33:58.420Z,65.39
2018-02-17T13:36:26.051Z,65.20
2018-02-17T13:38:53.569Z,65.07
2018-02-17T13:41:21.097Z,65.43
2018-02-17T13:43:48.727Z,65.64
2018-02-17T13:46:16.270Z,65.24
2018-02-17T13:48:43.788Z,66.47
2018-02-17T13:51:11.404Z,65.89
2018-02-17T13:53:38.964Z,66.17
2018-02-17T13:56:06.529Z,65.97
2018-02-17T13:58:34.049Z,65.91
2018-02-17T14:01:01.580Z,65.13
2018-02-17T14:03:29.096Z,65.53
2018-02-17T14:05:56.652Z,65.51
2018-02-17T14:08:24.182Z,66.03
2018-02-17T14:10:51.697Z,65.92
2018-02-17T14:13:19.233Z,65.40
2018-02-17T14:15:46.785Z,65.15
2018-02-17T14:18:14.278Z,65.39
2018-02-17T14:20:41.852Z,65.05
2018-02-17T14:23:09.407Z,65.39
2018-02-17T14:25:36.959Z,65.63
2018-02-17T14:28:04.467Z,66.03
2018-02-17T14:30:32.041Z,66.26
2018-02-17T14:32:59.572Z,66.70
2018-02-17T14:35:27.076Z,67.13
2018-02-17T14:37:54.592Z,67.35
2018-02-17T14:40:22.132Z,66.97
2018-02-17T14:42:49.671Z,66.95
2018-02-17T14:45:17.200Z,66.80
2018-02-17T14:47:44.728Z,67.06
2018-02-17T14:50:12.248Z,67.50
2018-02-17T14:52:39.769Z,67.62
2018-02-17T14:55:07.284Z,67.61
2018-02-17T14:57:34.807Z,67.73
2018-02-17T15:00:02.345Z,67.70
2018-02-17T15:02:29.869Z,67.81
2018-02-17T15:04:57.384Z,68.07
2018-02-17T15:07:25.870Z,68.09
2018-02-17T15:09:53.512Z,68.04
2018-02-17T15:12:21.007Z,68.18
2018-02-17T15:14:48.540Z,68.25
2018-02-17T15:17:16.113Z,67.94
2018-02-17T15:19:43.639Z,67.99
2018-02-17T15:22:11.241Z,67.76
2018-02-17T15:24:38.833Z,67.98
2018-02-17T15:27:06.347Z,68.04
2018-02-17T15:29:33.912Z,68.26
2018-02-17T15:32:01.424Z,68.50
2018-02-17T15:34:28.939Z,68.35
2018-02-17T15:36:56.512Z,68.39
2018-02-17T15:39:24.029Z,68.67
2018-02-17T15:41:51.590Z,68.88
2018-02-17T15:44:19.138Z,69.11
2018-02-17T15:46:46.729Z,68.98
2018-02-17T15:49:14.252Z,69.39
2018-02-17T15:51:41.791Z,69.19
2018-02-17T15:54:09.380Z,69.33
2018-02-17T15:56:36.894Z,69.70
2018-02-17T15:59:04.408Z,69.98
2018-02-17T16:01:31.933Z,69.95
2018-02-17T16:03:59.459Z,69.80
2018-02-17T16:06:26.967Z,70.00
2018-02-17T16:08:54.485Z,70.45
2018-02-17T16:11:21.997Z,70.72
2018-02-17T16:13:49.511Z,70.84
2018-02-17T16:16:17.055Z,70.90
2018-02-17T16:18:44.567Z,71.24
2018-02-17T16:21:12.101Z,71.53
2018-02-17T16:23:39.720Z,71.36
2018-02-17T16:26:07.239Z,71.69
2018-02-17T16:28:34.757Z,72.11
2018-02-17T16:31:02.269Z,72.40
2018-02-17T16:33:29.822Z,72.46
2018-02-17T16:35:57.358Z,72.54
2018-02-17T16:38:24.872Z,72.65
2018-02-17T16:40:52.391Z,72.59
2018-02-17T16:43:19.916Z,72.71
2018-02-17T16:45:47.432Z,72.92
2018-02-17T16:48:14.952Z,73.37
2018-02-17T16:50:42.471Z,73.14
2018-02-17T16:53:10.000Z,72.91
2018-02-17T16:55:37.607Z,73.22
2018-02-17T16:58:05.185Z,73.37
2018-02-17T17:00:32.681Z,73.48
2018-02-17T17:03:00.207Z,72.95
2018-02-17T17:05:27.727Z,73.06
2018-02-17T17:07:55.243Z,73.89
2018-02-17T17:10:22.791Z,73.97
2018-02-17T17:12:50.316Z,74.40
2018-02-17T17:15:18.330Z,74.21
2018-02-17T17:17:45.860Z,75.03
2018-02-17T17:20:13.373Z,74.88
2018-02-17T17:22:40.894Z,74.93
2018-02-17T17:25:08.413Z,75.12
2018-02-17T17:27:35.953Z,75.28
2018-02-17T17:30:03.472Z,75.01
2018-02-17T17:32:30.983Z,75.41
2018-02-17T17:34:58.501Z,75.52
2018-02-17T17:37:26.013Z,75.82
2018-02-17T17:39:53.524Z,75.76
2018-02-17T17:42:21.040Z,75.91
2018-02-17T17:44:48.553Z,75.92
2018-02-17T17:47:16.084Z,76.02
2018-02-17T17:49:43.600Z,75.98
2018-02-17T17:52:11.117Z,76.09
2018-02-17T17:54:38.632Z,75.94
2018-02-17T17:57:06.148Z,76.04
2018-02-17T17:59:33.672Z,75.87
2018-02-17T18:02:01.198Z,75.66
2018-02-17T18:04:28.724Z,76.28
2018-02-17T18:06:56.240Z,76.37
2018-02-17T18:09:23.748Z,76.52
2018-02-17T18:11:51.274Z,76.65
2018-02-17T18:14:18.913Z,76.15
2018-02-17T18:16:46.421Z,76.50
2018-02-17T18:19:13.946Z,76.56
2018-02-17T18:21:41.461Z,76.58
2018-02-17T18:24:08.978Z,76.71
2018-02-17T18:26:36.524Z,76.97
2018-02-17T18:29:04.020Z,77.24
2018-02-17T18:31:31.537Z,76.91
2018-02-17T18:33:59.048Z,77.33
2018-02-17T18:36:26.568Z,76.86
2018-02-17T18:38:54.102Z,77.34
2018-02-17T18:41:21.620Z,77.41
2018-02-17T18:43:49.133Z,77.55
2018-02-17T18:46:16.645Z,77.63
2018-02-17T18:48:44.168Z,77.51
2018-02-17T18:51:11.685Z,77.57
2018-02-17T18:53:39.215Z,77.97
2018-02-17T18:56:06.732Z,77.69
2018-02-17T18:58:34.246Z,77.53
2018-02-17T19:01:01.772Z,77.60
2018-02-17T19:03:29.293Z,77.43
2018-02-17T19:05:56.822Z,77.53
2018-02-17T19:08:24.342Z,77.59
2018-02-17T19:10:51.853Z,77.72
2018-02-17T19:13:19.366Z,77.83
2018-02-17T19:15:46.875Z,77.77
2018-02-17T19:18:14.397Z,77.55
2018-02-17T19:20:41.919Z,77.58
2018-02-17T19:23:09.477Z,77.75
2018-02-17T19:25:37.002Z,77.89
2018-02-17T19:28:04.522Z,77.74
2018-02-17T19:30:32.039Z,77.61
2018-02-17T19:32:59.555Z,77.57
2018-02-17T19:35:27.068Z,77.48
2018-02-17T19:37:54.591Z,77.13
2018-02-17T19:40:22.108Z,77.32
2018-02-17T19:42:49.629Z,77.37
2018-02-17T19:45:17.226Z,77.22
2018-02-17T19:47:44.746Z,77.46
2018-02-17T19:50:12.262Z,77.39
2018-02-17T19:52:39.809Z,77.48
2018-02-17T19:55:07.346Z,77.39
2018-02-17T19:57:34.862Z,77.10
2018-02-17T20:00:02.386Z,76.67
2018-02-17T20:02:29.917Z,77.29
2018-02-17T20:04:57.433Z,77.19
2018-02-17T20:07:24.953Z,77.07
2018-02-17T20:09:52.465Z,76.81
2018-02-17T20:12:19.972Z,75.42
2018-02-17T20:14:47.485Z,75.78
2018-02-17T20:17:15.001Z,75.75
2018-02-17T20:19:42.514Z,75.08
2018-02-17T20:22:10.027Z,74.95
2018-02-17T20:24:37.567Z,75.16
2018-02-17T20:27:05.078Z,75.25
2018-02-17T20:29:32.588Z,75.53
2018-02-17T20:32:00.109Z,75.68
2018-02-17T20:34:27.633Z,75.95
2018-02-17T20:36:55.160Z,75.76
2018-02-17T20:39:22.668Z,75.58
2018-02-17T20:41:50.229Z,75.47
2018-02-17T20:44:17.746Z,75.33
2018-02-17T20:46:45.278Z,75.06
2018-02-17T20:49:12.821Z,75.33
2018-02-17T20:51:40.333Z,75.53
2018-02-17T20:54:07.836Z,75.11
2018-02-17T20:56:35.354Z,74.26
2018-02-17T20:59:02.882Z,74.44
2018-02-17T21:01:30.489Z,74.15
2018-02-17T21:03:57.980Z,72.72
2018-02-17T21:06:25.484Z,71.94
2018-02-17T21:08:52.996Z,71.96
2018-02-17T21:11:20.505Z,72.21
2018-02-17T21:13:48.028Z,72.38
2018-02-17T21:16:15.537Z,72.98
2018-02-17T21:18:43.356Z,73.36
2018-02-17T21:21:10.861Z,73.65
2018-02-17T21:23:38.397Z,74.21
2018-02-17T21:26:05.953Z,74.81
2018-02-17T21:28:33.487Z,75.03
2018-02-17T21:31:01.006Z,75.83
2018-02-17T21:33:28.610Z,76.18
2018-02-17T21:35:56.121Z,76.47
2018-02-17T21:38:23.737Z,76.60
2018-02-17T21:40:51.241Z,77.05
2018-02-17T21:43:18.774Z,76.85
2018-02-17T21:45:46.392Z,76.94
2018-02-17T21:48:13.900Z,77.07
2018-02-17T21:50:41.412Z,77.24
2018-02-17T21:53:08.948Z,77.10
2018-02-17T21:55:36.500Z,77.35
2018-02-17T21:58:04.032Z,77.43
2018-02-17T22:00:31.555Z,77.51
2018-02-17T22:02:59.122Z,77.49
2018-02-17T22:05:26.634Z,77.54
2018-02-17T22:07:54.159Z,77.24
2018-02-17T22:10:21.795Z,76.85
2018-02-17T22:12:49.309Z,76.56
2018-02-17T22:15:16.830Z,76.43
2018-02-17T22:17:44.345Z,76.61
2018-02-17T22:20:11.931Z,76.46
2018-02-17T22:22:39.492Z,76.34
2018-02-17T22:25:07.053Z,76.10
2018-02-17T22:27:34.573Z,76.50
2018-02-17T22:30:02.182Z,76.65
2018-02-17T22:32:29.706Z,76.47
2018-02-17T22:34:57.227Z,76.76
2018-02-17T22:37:24.737Z,76.97
2018-02-17T22:39:52.247Z,76.86
2018-02-17T22:42:19.877Z,76.93
2018-02-17T22:44:47.400Z,77.18
2018-02-17T22:47:14.936Z,77.29
2018-02-17T22:49:42.478Z,77.06
2018-02-17T22:52:09.993Z,77.14
2018-02-17T22:54:37.506Z,77.84
2018-02-17T22:57:05.022Z,78.19
2018-02-17T22:59:32.550Z,78.02
2018-02-17T23:02:00.067Z,77.98
2018-02-17T23:04:27.589Z,78.25
2018-02-17T23:06:55.162Z,78.21
2018-02-17T23:09:22.672Z,77.80
2018-02-17T23:11:50.978Z,78.42
2018-02-17T23:14:18.500Z,78.17
2018-02-17T23:16:46.017Z,78.35
2018-02-17T23:19:13.519Z,78.86
2018-02-17T23:21:41.054Z,78.37
2018-02-17T23:24:08.591Z,78.46
2018-02-17T23:26:36.129Z,78.56
2018-02-17T23:29:03.645Z,78.68
2018-02-17T23:31:31.170Z,79.30
2018-02-17T23:33:58.697Z,79.62
2018-02-17T23:36:26.218Z,79.44
2018-02-17T23:38:53.729Z,79.49
2018-02-17T23:41:21.249Z,79.47
2018-02-17T23:43:48.774Z,79.37
2018-02-17T23:46:16.295Z,79.25
2018-02-17T23:48:43.809Z,79.29
2018-02-17T23:51:11.340Z,79.11
2018-02-17T23:53:38.861Z,79.22
2018-02-17T23:56:06.380Z,79.21
2018-02-17T23:58:33.902Z,78.80
